Aviation Digital Data Service (ADDS)

Output produced by METARs form (0728 UTC 27 February 2020)
found at http://www.aviationweather.gov/metar/data/
 
METAR text: RKTN 270700Z 11007KT 9999 FEW040 BKN060 09/M01 Q1028
Conditions at: RKTN (TAEGU (US/KOR-AF, KR) observed 0700 UTC 27 February 2020
Temperature: 9.0°C (48°F)
Dewpoint: -1.0°C (30°F) [RH = 49%]
Pressure (altimeter): 30.35 inches Hg (1028.0 mb)
Winds: from the ESE (110 degrees) at 8 MPH (7 knots; 3.6 m/s)
Visibility: 6 or more miles (10+ km)
Ceiling: 6000 feet AGL
Clouds: few clouds at 4000 feet AGL
broken clouds at 6000 feet AGL
Weather: no significant weather observed at this time

METAR text: RKTN 270600Z 16003KT 9999 SCT040 BKN060 09/M02 Q1028
Conditions at: RKTN (TAEGU (US/KOR-AF, KR) observed 0600 UTC 27 February 2020
Temperature: 9.0°C (48°F)
Dewpoint: -2.0°C (28°F) [RH = 46%]
Pressure (altimeter): 30.35 inches Hg (1028.0 mb)
Winds: from the SSE (160 degrees) at 3 MPH (3 knots; 1.5 m/s)
Visibility: 6 or more miles (10+ km)
Ceiling: 6000 feet AGL
Clouds: scattered clouds at 4000 feet AGL
broken clouds at 6000 feet AGL
Weather: no significant weather observed at this time

METAR text: RKTN 270500Z 11008KT 9999 BKN040 BKN060 08/M01 Q1028 RMK CIG040 SLP288 8/500 9/700
Conditions at: RKTN (TAEGU (US/KOR-AF, KR) observed 0500 UTC 27 February 2020
Temperature: 8.0°C (46°F)
Dewpoint: -1.0°C (30°F) [RH = 53%]
Pressure (altimeter): 30.35 inches Hg (1028.0 mb)
[Sea-level pressure: 1028.8 mb]
Winds: from the ESE (110 degrees) at 9 MPH (8 knots; 4.1 m/s)
Visibility: 6 or more miles (10+ km)
Ceiling: 4000 feet AGL
Clouds: broken clouds at 4000 feet AGL
broken clouds at 6000 feet AGL
Weather: no significant weather observed at this time

METAR text: RKTN 270400Z 12008KT 9999 FEW025 BKN040 09/00 Q1029
Conditions at: RKTN (TAEGU (US/KOR-AF, KR) observed 0400 UTC 27 February 2020
Temperature: 9.0°C (48°F)
Dewpoint: 0.0°C (32°F) [RH = 53%]
Pressure (altimeter): 30.38 inches Hg (1029.0 mb)
Winds: from the ESE (120 degrees) at 9 MPH (8 knots; 4.1 m/s)
Visibility: 6 or more miles (10+ km)
Ceiling: 4000 feet AGL
Clouds: few clouds at 2500 feet AGL
broken clouds at 4000 feet AGL
Weather: no significant weather observed at this time

METAR text: RKTN 270300Z 13011KT 9999 BKN040 08/00 Q1029
Conditions at: RKTN (TAEGU (US/KOR-AF, KR) observed 0300 UTC 27 February 2020
Temperature: 8.0°C (46°F)
Dewpoint: 0.0°C (32°F) [RH = 57%]
Pressure (altimeter): 30.38 inches Hg (1029.0 mb)
Winds: from the SE (130 degrees) at 13 MPH (11 knots; 5.7 m/s)
Visibility: 6 or more miles (10+ km)
Ceiling: 4000 feet AGL
Clouds: broken clouds at 4000 feet AGL
Weather: no significant weather observed at this time

METAR text: RKTN 270200Z 14011KT 9999 BKN040 08/01 Q1029
Conditions at: RKTN (TAEGU (US/KOR-AF, KR) observed 0200 UTC 27 February 2020
Temperature: 8.0°C (46°F)
Dewpoint: 1.0°C (34°F) [RH = 61%]
Pressure (altimeter): 30.38 inches Hg (1029.0 mb)
Winds: from the SE (140 degrees) at 13 MPH (11 knots; 5.7 m/s)
Visibility: 6 or more miles (10+ km)
Ceiling: 4000 feet AGL
Clouds: broken clouds at 4000 feet AGL
Weather: no significant weather observed at this time

METAR text: RKTN 270100Z 13008KT 9999 BKN040 07/00 Q1030
Conditions at: RKTN (TAEGU (US/KOR-AF, KR) observed 0100 UTC 27 February 2020
Temperature: 7.0°C (45°F)
Dewpoint: 0.0°C (32°F) [RH = 61%]
Pressure (altimeter): 30.41 inches Hg (1030.0 mb)
Winds: from the SE (130 degrees) at 9 MPH (8 knots; 4.1 m/s)
Visibility: 6 or more miles (10+ km)
Ceiling: 4000 feet AGL
Clouds: broken clouds at 4000 feet AGL
Weather: no significant weather observed at this time

METAR text: RKTN 270000Z 13007KT 9999 FEW020 BKN040 06/M01 Q1029
Conditions at: RKTN (TAEGU (US/KOR-AF, KR) observed 0000 UTC 27 February 2020
Temperature: 6.0°C (43°F)
Dewpoint: -1.0°C (30°F) [RH = 61%]
Pressure (altimeter): 30.38 inches Hg (1029.0 mb)
Winds: from the SE (130 degrees) at 8 MPH (7 knots; 3.6 m/s)
Visibility: 6 or more miles (10+ km)
Ceiling: 4000 feet AGL
Clouds: few clouds at 2000 feet AGL
broken clouds at 4000 feet AGL
Weather: no significant weather observed at this time

METAR text: RKTN 262300Z 14006KT 9999 FEW020 BKN040 05/M01 Q1029
Conditions at: RKTN (TAEGU (US/KOR-AF, KR) observed 2300 UTC 26 February 2020
Temperature: 5.0°C (41°F)
Dewpoint: -1.0°C (30°F) [RH = 65%]
Pressure (altimeter): 30.38 inches Hg (1029.0 mb)
Winds: from the SE (140 degrees) at 7 MPH (6 knots; 3.1 m/s)
Visibility: 6 or more miles (10+ km)
Ceiling: 4000 feet AGL
Clouds: few clouds at 2000 feet AGL
broken clouds at 4000 feet AGL
Weather: no significant weather observed at this time

METAR text: RKTN 262200Z 13007KT 9999 FEW020 BKN040 05/00 Q1028
Conditions at: RKTN (TAEGU (US/KOR-AF, KR) observed 2200 UTC 26 February 2020
Temperature: 5.0°C (41°F)
Dewpoint: 0.0°C (32°F) [RH = 70%]
Pressure (altimeter): 30.35 inches Hg (1028.0 mb)
Winds: from the SE (130 degrees) at 8 MPH (7 knots; 3.6 m/s)
Visibility: 6 or more miles (10+ km)
Ceiling: 4000 feet AGL
Clouds: few clouds at 2000 feet AGL
broken clouds at 4000 feet AGL
Weather: no significant weather observed at this time

METAR text: RKTN 262100Z 14007KT 9999 FEW020 BKN035 05/00 Q1027
Conditions at: RKTN (TAEGU (US/KOR-AF, KR) observed 2100 UTC 26 February 2020
Temperature: 5.0°C (41°F)
Dewpoint: 0.0°C (32°F) [RH = 70%]
Pressure (altimeter): 30.32 inches Hg (1027.0 mb)
Winds: from the SE (140 degrees) at 8 MPH (7 knots; 3.6 m/s)
Visibility: 6 or more miles (10+ km)
Ceiling: 3500 feet AGL
Clouds: few clouds at 2000 feet AGL
broken clouds at 3500 feet AGL
Weather: no significant weather observed at this time

METAR text: RKTN 262000Z 14007KT 9999 FEW020 BKN035 05/01 Q1027
Conditions at: RKTN (TAEGU (US/KOR-AF, KR) observed 2000 UTC 26 February 2020
Temperature: 5.0°C (41°F)
Dewpoint: 1.0°C (34°F) [RH = 75%]
Pressure (altimeter): 30.32 inches Hg (1027.0 mb)
Winds: from the SE (140 degrees) at 8 MPH (7 knots; 3.6 m/s)
Visibility: 6 or more miles (10+ km)
Ceiling: 3500 feet AGL
Clouds: few clouds at 2000 feet AGL
broken clouds at 3500 feet AGL
Weather: no significant weather observed at this time

METAR text: RKTN 261900Z 15007KT 9999 FEW020 BKN040 06/01 Q1026
Conditions at: RKTN (TAEGU (US/KOR-AF, KR) observed 1900 UTC 26 February 2020
Temperature: 6.0°C (43°F)
Dewpoint: 1.0°C (34°F) [RH = 70%]
Pressure (altimeter): 30.30 inches Hg (1026.0 mb)
Winds: from the SSE (150 degrees) at 8 MPH (7 knots; 3.6 m/s)
Visibility: 6 or more miles (10+ km)
Ceiling: 4000 feet AGL
Clouds: few clouds at 2000 feet AGL
broken clouds at 4000 feet AGL
Weather: no significant weather observed at this time

METAR text: RKTN 261810Z 26SPECI
Conditions at: RKTN (TAEGU (US/KOR-AF, KR) observed 1810 UTC 26 February 2020
Temperature: missing
Dewpoint: missing
Pressure (altimeter): missing
Winds: missing
Visibility: missing
Ceiling: unknown
Clouds: missing
Weather: PE  (moderate ice pellets)

METAR text: RKTN 261806Z 14010KT 9999 FEW020 BKN040 06/02 A3032 RMK CIG040
Conditions at: RKTN (TAEGU (US/KOR-AF, KR) observed 1806 UTC 26 February 2020
Temperature: 6.0°C (43°F)
Dewpoint: 2.0°C (36°F) [RH = 75%]
Pressure (altimeter): 30.32 inches Hg (1026.8 mb)
Winds: from the SE (140 degrees) at 12 MPH (10 knots; 5.1 m/s)
Visibility: 6 or more miles (10+ km)
Ceiling: 4000 feet AGL
Clouds: few clouds at 2000 feet AGL
broken clouds at 4000 feet AGL
Weather: no significant weather observed at this time

METAR text: RKTN 261803Z 14010KT 9999 FEW020 BKN040 06/02 Q1026 RMK CIG040
Conditions at: RKTN (TAEGU (US/KOR-AF, KR) observed 1803 UTC 26 February 2020
Temperature: 6.0°C (43°F)
Dewpoint: 2.0°C (36°F) [RH = 75%]
Pressure (altimeter): 30.30 inches Hg (1026.0 mb)
Winds: from the SE (140 degrees) at 12 MPH (10 knots; 5.1 m/s)
Visibility: 6 or more miles (10+ km)
Ceiling: 4000 feet AGL
Clouds: few clouds at 2000 feet AGL
broken clouds at 4000 feet AGL
Weather: no significant weather observed at this time

METAR text: RKTN 261800Z 14010KT 9999 -RA FEW020 BKN040 06/02 Q1026
Conditions at: RKTN (TAEGU (US/KOR-AF, KR) observed 1800 UTC 26 February 2020
Temperature: 6.0°C (43°F)
Dewpoint: 2.0°C (36°F) [RH = 75%]
Pressure (altimeter): 30.30 inches Hg (1026.0 mb)
Winds: from the SE (140 degrees) at 12 MPH (10 knots; 5.1 m/s)
Visibility: 6 or more miles (10+ km)
Ceiling: 4000 feet AGL
Clouds: few clouds at 2000 feet AGL
broken clouds at 4000 feet AGL
Weather: -RA  (light rain)

METAR text: RKTN 261743Z 26SPECI
Conditions at: RKTN (TAEGU (US/KOR-AF, KR) observed 1743 UTC 26 February 2020
Temperature: missing
Dewpoint: missing
Pressure (altimeter): missing
Winds: missing
Visibility: missing
Ceiling: unknown
Clouds: missing
Weather: PE  (moderate ice pellets)

METAR text: RKTN 261738Z 14009KT 9999 -RA FEW020 BKN040 06/02 A3031 RMK CIG040
Conditions at: RKTN (TAEGU (US/KOR-AF, KR) observed 1738 UTC 26 February 2020
Temperature: 6.0°C (43°F)
Dewpoint: 2.0°C (36°F) [RH = 75%]
Pressure (altimeter): 30.31 inches Hg (1026.5 mb)
Winds: from the SE (140 degrees) at 10 MPH (9 knots; 4.6 m/s)
Visibility: 6 or more miles (10+ km)
Ceiling: 4000 feet AGL
Clouds: few clouds at 2000 feet AGL
broken clouds at 4000 feet AGL
Weather: -RA  (light rain)

METAR text: RKTN 261735Z 14009KT 9999 -RA FEW020 BKN040 06/02 Q1026 RMK CIG040
Conditions at: RKTN (TAEGU (US/KOR-AF, KR) observed 1735 UTC 26 February 2020
Temperature: 6.0°C (43°F)
Dewpoint: 2.0°C (36°F) [RH = 75%]
Pressure (altimeter): 30.30 inches Hg (1026.0 mb)
Winds: from the SE (140 degrees) at 10 MPH (9 knots; 4.6 m/s)
Visibility: 6 or more miles (10+ km)
Ceiling: 4000 feet AGL
Clouds: few clouds at 2000 feet AGL
broken clouds at 4000 feet AGL
Weather: -RA  (light rain)

METAR text: RKTN 261700Z 15010KT 9999 FEW020 BKN040 06/03 Q1026
Conditions at: RKTN (TAEGU (US/KOR-AF, KR) observed 1700 UTC 26 February 2020
Temperature: 6.0°C (43°F)
Dewpoint: 3.0°C (37°F) [RH = 81%]
Pressure (altimeter): 30.30 inches Hg (1026.0 mb)
Winds: from the SSE (150 degrees) at 12 MPH (10 knots; 5.1 m/s)
Visibility: 6 or more miles (10+ km)
Ceiling: 4000 feet AGL
Clouds: few clouds at 2000 feet AGL
broken clouds at 4000 feet AGL
Weather: no significant weather observed at this time

METAR text: RKTN 261600Z 14009KT 9999 FEW020 BKN035 06/03 Q1025
Conditions at: RKTN (TAEGU (US/KOR-AF, KR) observed 1600 UTC 26 February 2020
Temperature: 6.0°C (43°F)
Dewpoint: 3.0°C (37°F) [RH = 81%]
Pressure (altimeter): 30.27 inches Hg (1025.0 mb)
Winds: from the SE (140 degrees) at 10 MPH (9 knots; 4.6 m/s)
Visibility: 6 or more miles (10+ km)
Ceiling: 3500 feet AGL
Clouds: few clouds at 2000 feet AGL
broken clouds at 3500 feet AGL
Weather: no significant weather observed at this time

METAR text: RKTN 261500Z 14011KT 9999 BKN035 07/04 Q1025
Conditions at: RKTN (TAEGU (US/KOR-AF, KR) observed 1500 UTC 26 February 2020
Temperature: 7.0°C (45°F)
Dewpoint: 4.0°C (39°F) [RH = 81%]
Pressure (altimeter): 30.27 inches Hg (1025.0 mb)
Winds: from the SE (140 degrees) at 13 MPH (11 knots; 5.7 m/s)
Visibility: 6 or more miles (10+ km)
Ceiling: 3500 feet AGL
Clouds: broken clouds at 3500 feet AGL
Weather: no significant weather observed at this time

METAR text: RKTN 261400Z 14010KT 9999 BKN035 06/04 Q1025
Conditions at: RKTN (TAEGU (US/KOR-AF, KR) observed 1400 UTC 26 February 2020
Temperature: 6.0°C (43°F)
Dewpoint: 4.0°C (39°F) [RH = 87%]
Pressure (altimeter): 30.27 inches Hg (1025.0 mb)
Winds: from the SE (140 degrees) at 12 MPH (10 knots; 5.1 m/s)
Visibility: 6 or more miles (10+ km)
Ceiling: 3500 feet AGL
Clouds: broken clouds at 3500 feet AGL
Weather: no significant weather observed at this time

METAR text: RKTN 261300Z 13007KT 9999 BKN035 07/04 Q1024 RMK CIG035 SLP248 8/500 9/700
Conditions at: RKTN (TAEGU (US/KOR-AF, KR) observed 1300 UTC 26 February 2020
Temperature: 7.0°C (45°F)
Dewpoint: 4.0°C (39°F) [RH = 81%]
Pressure (altimeter): 30.24 inches Hg (1024.0 mb)
[Sea-level pressure: 1024.8 mb]
Winds: from the SE (130 degrees) at 8 MPH (7 knots; 3.6 m/s)
Visibility: 6 or more miles (10+ km)
Ceiling: 3500 feet AGL
Clouds: broken clouds at 3500 feet AGL
Weather: no significant weather observed at this time

METAR text: RKTN 261251Z 26SPECI
Conditions at: RKTN (TAEGU (US/KOR-AF, KR) observed 1251 UTC 26 February 2020
Temperature: missing
Dewpoint: missing
Pressure (altimeter): missing
Winds: missing
Visibility: missing
Ceiling: unknown
Clouds: missing
Weather: PE  (moderate ice pellets)

METAR text: RKTN 261246Z 13009KT 9999 BKN035 07/04 A3025 RMK CIG035
Conditions at: RKTN (TAEGU (US/KOR-AF, KR) observed 1246 UTC 26 February 2020
Temperature: 7.0°C (45°F)
Dewpoint: 4.0°C (39°F) [RH = 81%]
Pressure (altimeter): 30.25 inches Hg (1024.5 mb)
Winds: from the SE (130 degrees) at 10 MPH (9 knots; 4.6 m/s)
Visibility: 6 or more miles (10+ km)
Ceiling: 3500 feet AGL
Clouds: broken clouds at 3500 feet AGL
Weather: no significant weather observed at this time

METAR text: RKTN 261243Z 13009KT 9999 BKN035 07/04 Q1024 RMK CIG035
Conditions at: RKTN (TAEGU (US/KOR-AF, KR) observed 1243 UTC 26 February 2020
Temperature: 7.0°C (45°F)
Dewpoint: 4.0°C (39°F) [RH = 81%]
Pressure (altimeter): 30.24 inches Hg (1024.0 mb)
Winds: from the SE (130 degrees) at 10 MPH (9 knots; 4.6 m/s)
Visibility: 6 or more miles (10+ km)
Ceiling: 3500 feet AGL
Clouds: broken clouds at 3500 feet AGL
Weather: no significant weather observed at this time

METAR text: RKTN 261221Z 26SPECI
Conditions at: RKTN (TAEGU (US/KOR-AF, KR) observed 1221 UTC 26 February 2020
Temperature: missing
Dewpoint: missing
Pressure (altimeter): missing
Winds: missing
Visibility: missing
Ceiling: unknown
Clouds: missing
Weather: PE  (moderate ice pellets)

METAR text: RKTN 261217Z 13010KT 9999 -RA BKN035 07/04 A3024 RMK CIG035
Conditions at: RKTN (TAEGU (US/KOR-AF, KR) observed 1217 UTC 26 February 2020
Temperature: 7.0°C (45°F)
Dewpoint: 4.0°C (39°F) [RH = 81%]
Pressure (altimeter): 30.24 inches Hg (1024.1 mb)
Winds: from the SE (130 degrees) at 12 MPH (10 knots; 5.1 m/s)
Visibility: 6 or more miles (10+ km)
Ceiling: 3500 feet AGL
Clouds: broken clouds at 3500 feet AGL
Weather: -RA  (light rain)

METAR text: RKTN 261216Z 13010KT 9999 -RA BKN040 07/04 A3024 RMK CIG040
Conditions at: RKTN (TAEGU (US/KOR-AF, KR) observed 1216 UTC 26 February 2020
Temperature: 7.0°C (45°F)
Dewpoint: 4.0°C (39°F) [RH = 81%]
Pressure (altimeter): 30.24 inches Hg (1024.1 mb)
Winds: from the SE (130 degrees) at 12 MPH (10 knots; 5.1 m/s)
Visibility: 6 or more miles (10+ km)
Ceiling: 4000 feet AGL
Clouds: broken clouds at 4000 feet AGL
Weather: -RA  (light rain)

METAR text: RKTN 261215Z 13010KT 9999 -RA BKN040 07/04 Q1024 RMK CIG040
Conditions at: RKTN (TAEGU (US/KOR-AF, KR) observed 1215 UTC 26 February 2020
Temperature: 7.0°C (45°F)
Dewpoint: 4.0°C (39°F) [RH = 81%]
Pressure (altimeter): 30.24 inches Hg (1024.0 mb)
Winds: from the SE (130 degrees) at 12 MPH (10 knots; 5.1 m/s)
Visibility: 6 or more miles (10+ km)
Ceiling: 4000 feet AGL
Clouds: broken clouds at 4000 feet AGL
Weather: -RA  (light rain)

METAR text: RKTN 261200Z 13010KT 9999 BKN040 08/04 Q1023
Conditions at: RKTN (TAEGU (US/KOR-AF, KR) observed 1200 UTC 26 February 2020
Temperature: 8.0°C (46°F)
Dewpoint: 4.0°C (39°F) [RH = 76%]
Pressure (altimeter): 30.21 inches Hg (1023.0 mb)
Winds: from the SE (130 degrees) at 12 MPH (10 knots; 5.1 m/s)
Visibility: 6 or more miles (10+ km)
Ceiling: 4000 feet AGL
Clouds: broken clouds at 4000 feet AGL
Weather: no significant weather observed at this time

METAR text: RKTN 261100Z 14009KT 9999 BKN040 09/05 Q1023
Conditions at: RKTN (TAEGU (US/KOR-AF, KR) observed 1100 UTC 26 February 2020
Temperature: 9.0°C (48°F)
Dewpoint: 5.0°C (41°F) [RH = 76%]
Pressure (altimeter): 30.21 inches Hg (1023.0 mb)
Winds: from the SE (140 degrees) at 10 MPH (9 knots; 4.6 m/s)
Visibility: 6 or more miles (10+ km)
Ceiling: 4000 feet AGL
Clouds: broken clouds at 4000 feet AGL
Weather: no significant weather observed at this time

METAR text: RKTN 261000Z 13007KT 9999 FEW025 BKN040 10/05 Q1022
Conditions at: RKTN (TAEGU (US/KOR-AF, KR) observed 1000 UTC 26 February 2020
Temperature: 10.0°C (50°F)
Dewpoint: 5.0°C (41°F) [RH = 71%]
Pressure (altimeter): 30.18 inches Hg (1022.0 mb)
Winds: from the SE (130 degrees) at 8 MPH (7 knots; 3.6 m/s)
Visibility: 6 or more miles (10+ km)
Ceiling: 4000 feet AGL
Clouds: few clouds at 2500 feet AGL
broken clouds at 4000 feet AGL
Weather: no significant weather observed at this time

METAR text: RKTN 260900Z 13007KT 9999 FEW025 SCT040 11/06 Q1021
Conditions at: RKTN (TAEGU (US/KOR-AF, KR) observed 0900 UTC 26 February 2020
Temperature: 11.0°C (52°F)
Dewpoint: 6.0°C (43°F) [RH = 71%]
Pressure (altimeter): 30.15 inches Hg (1021.0 mb)
Winds: from the SE (130 degrees) at 8 MPH (7 knots; 3.6 m/s)
Visibility: 6 or more miles (10+ km)
Ceiling: at least 12,000 feet AGL
Clouds: few clouds at 2500 feet AGL
scattered clouds at 4000 feet AGL
Weather: no significant weather observed at this time

METAR text: RKTN 260800Z 14011KT 9999 BKN040 12/06 Q1020
Conditions at: RKTN (TAEGU (US/KOR-AF, KR) observed 0800 UTC 26 February 2020
Temperature: 12.0°C (54°F)
Dewpoint: 6.0°C (43°F) [RH = 67%]
Pressure (altimeter): 30.12 inches Hg (1020.0 mb)
Winds: from the SE (140 degrees) at 13 MPH (11 knots; 5.7 m/s)
Visibility: 6 or more miles (10+ km)
Ceiling: 4000 feet AGL
Clouds: broken clouds at 4000 feet AGL
Weather: no significant weather observed at this time

METAR text: RKTN 260742Z 26SPECI
Conditions at: RKTN (TAEGU (US/KOR-AF, KR) observed 0742 UTC 26 February 2020
Temperature: missing
Dewpoint: missing
Pressure (altimeter): missing
Winds: missing
Visibility: missing
Ceiling: unknown
Clouds: missing
Weather: PE  (moderate ice pellets)

METAR text: RKTN 260738Z 14009KT 9999 BKN040 12/06 A3014 RMK CIG040
Conditions at: RKTN (TAEGU (US/KOR-AF, KR) observed 0738 UTC 26 February 2020
Temperature: 12.0°C (54°F)
Dewpoint: 6.0°C (43°F) [RH = 67%]
Pressure (altimeter): 30.14 inches Hg (1020.7 mb)
Winds: from the SE (140 degrees) at 10 MPH (9 knots; 4.6 m/s)
Visibility: 6 or more miles (10+ km)
Ceiling: 4000 feet AGL
Clouds: broken clouds at 4000 feet AGL
Weather: no significant weather observed at this time

METAR text: RKTN 260735Z 14009KT 9999 BKN040 12/06 Q1020 RMK CIG040
Conditions at: RKTN (TAEGU (US/KOR-AF, KR) observed 0735 UTC 26 February 2020
Temperature: 12.0°C (54°F)
Dewpoint: 6.0°C (43°F) [RH = 67%]
Pressure (altimeter): 30.12 inches Hg (1020.0 mb)
Winds: from the SE (140 degrees) at 10 MPH (9 knots; 4.6 m/s)
Visibility: 6 or more miles (10+ km)
Ceiling: 4000 feet AGL
Clouds: broken clouds at 4000 feet AGL
Weather: no significant weather observed at this time

METAR text: RKTN 260700Z 22001KT 9999 SCT040 SCT060 14/05 Q1020
Conditions at: RKTN (TAEGU (US/KOR-AF, KR) observed 0700 UTC 26 February 2020
Temperature: 14.0°C (57°F)
Dewpoint: 5.0°C (41°F) [RH = 55%]
Pressure (altimeter): 30.12 inches Hg (1020.0 mb)
Winds: from the SW (220 degrees) at 1 MPH (1 knots; 0.5 m/s)
Visibility: 6 or more miles (10+ km)
Ceiling: at least 12,000 feet AGL
Clouds: scattered clouds at 4000 feet AGL
scattered clouds at 6000 feet AGL
Weather: no significant weather observed at this time

METAR text: RKTN 260600Z 02002KT 9999 SCT030 12/04 Q1020
Conditions at: RKTN (TAEGU (US/KOR-AF, KR) observed 0600 UTC 26 February 2020
Temperature: 12.0°C (54°F)
Dewpoint: 4.0°C (39°F) [RH = 58%]
Pressure (altimeter): 30.12 inches Hg (1020.0 mb)
Winds: from the NNE (20 degrees) at 2 MPH (2 knots; 1.0 m/s)
Visibility: 6 or more miles (10+ km)
Ceiling: at least 12,000 feet AGL
Clouds: scattered clouds at 3000 feet AGL
Weather: no significant weather observed at this time

METAR text: RKTN 260500Z 03001KT 9999 SCT025 BKN035 13/06 Q1021
Conditions at: RKTN (TAEGU (US/KOR-AF, KR) observed 0500 UTC 26 February 2020
Temperature: 13.0°C (55°F)
Dewpoint: 6.0°C (43°F) [RH = 62%]
Pressure (altimeter): 30.15 inches Hg (1021.0 mb)
Winds: from the NNE (30 degrees) at 1 MPH (1 knots; 0.5 m/s)
Visibility: 6 or more miles (10+ km)
Ceiling: 3500 feet AGL
Clouds: scattered clouds at 2500 feet AGL
broken clouds at 3500 feet AGL
Weather: no significant weather observed at this time

METAR text: RKTN 260400Z 11002KT 9999 SCT020 BKN030 10/05 Q1022
Conditions at: RKTN (TAEGU (US/KOR-AF, KR) observed 0400 UTC 26 February 2020
Temperature: 10.0°C (50°F)
Dewpoint: 5.0°C (41°F) [RH = 71%]
Pressure (altimeter): 30.18 inches Hg (1022.0 mb)
Winds: from the ESE (110 degrees) at 2 MPH (2 knots; 1.0 m/s)
Visibility: 6 or more miles (10+ km)
Ceiling: 3000 feet AGL
Clouds: scattered clouds at 2000 feet AGL
broken clouds at 3000 feet AGL
Weather: no significant weather observed at this time

METAR text: RKTN 260300Z 17001KT 9000 FEW010 SCT020 BKN030 10/06 Q1023
Conditions at: RKTN (TAEGU (US/KOR-AF, KR) observed 0300 UTC 26 February 2020
Temperature: 10.0°C (50°F)
Dewpoint: 6.0°C (43°F) [RH = 76%]
Pressure (altimeter): 30.21 inches Hg (1023.0 mb)
Winds: from the S (170 degrees) at 1 MPH (1 knots; 0.5 m/s)
Visibility: 6 miles ( 9 km)
Ceiling: 3000 feet AGL
Clouds: few clouds at 1000 feet AGL
scattered clouds at 2000 feet AGL
broken clouds at 3000 feet AGL
Weather: no significant weather observed at this time

METAR text: RKTN 260200Z 31001KT 9000 FEW010 SCT020 BKN030 09/06 Q1023
Conditions at: RKTN (TAEGU (US/KOR-AF, KR) observed 0200 UTC 26 February 2020
Temperature: 9.0°C (48°F)
Dewpoint: 6.0°C (43°F) [RH = 81%]
Pressure (altimeter): 30.21 inches Hg (1023.0 mb)
Winds: from the NW (310 degrees) at 1 MPH (1 knots; 0.5 m/s)
Visibility: 6 miles ( 9 km)
Ceiling: 3000 feet AGL
Clouds: few clouds at 1000 feet AGL
scattered clouds at 2000 feet AGL
broken clouds at 3000 feet AGL
Weather: no significant weather observed at this time

METAR text: RKTN 260100Z 34003KT 9000 FEW005 SCT020 BKN025 08/06 Q1023 RMK CIG025 SLP238 8/500 9/700
Conditions at: RKTN (TAEGU (US/KOR-AF, KR) observed 0100 UTC 26 February 2020
Temperature: 8.0°C (46°F)
Dewpoint: 6.0°C (43°F) [RH = 87%]
Pressure (altimeter): 30.21 inches Hg (1023.0 mb)
[Sea-level pressure: 1023.8 mb]
Winds: from the NNW (340 degrees) at 3 MPH (3 knots; 1.5 m/s)
Visibility: 6 miles ( 9 km)
Ceiling: 2500 feet AGL
Clouds: few clouds at 500 feet AGL
scattered clouds at 2000 feet AGL
broken clouds at 2500 feet AGL
Weather: no significant weather observed at this time

METAR text: RKTN 260000Z 34002KT 9000 FEW005 SCT020 BKN025 08/06 Q1023
Conditions at: RKTN (TAEGU (US/KOR-AF, KR) observed 0000 UTC 26 February 2020
Temperature: 8.0°C (46°F)
Dewpoint: 6.0°C (43°F) [RH = 87%]
Pressure (altimeter): 30.21 inches Hg (1023.0 mb)
Winds: from the NNW (340 degrees) at 2 MPH (2 knots; 1.0 m/s)
Visibility: 6 miles ( 9 km)
Ceiling: 2500 feet AGL
Clouds: few clouds at 500 feet AGL
scattered clouds at 2000 feet AGL
broken clouds at 2500 feet AGL
Weather: no significant weather observed at this time

METAR text: RKTN 252300Z 28001KT 6000 FEW005 BKN020 BKN025 07/06 Q1022 RMK CIG020 SLP225 8/500 9/700
Conditions at: RKTN (TAEGU (US/KOR-AF, KR) observed 2300 UTC 25 February 2020
Temperature: 7.0°C (45°F)
Dewpoint: 6.0°C (43°F) [RH = 93%]
Pressure (altimeter): 30.18 inches Hg (1022.0 mb)
[Sea-level pressure: 1022.5 mb]
Winds: from the W (280 degrees) at 1 MPH (1 knots; 0.5 m/s)
Visibility: 4 miles ( 6 km)
Ceiling: 2000 feet AGL
Clouds: few clouds at 500 feet AGL
broken clouds at 2000 feet AGL
broken clouds at 2500 feet AGL
Weather: no significant weather observed at this time

METAR text: RKTN 252224Z 25SPECI
Conditions at: RKTN (TAEGU (US/KOR-AF, KR) observed 2224 UTC 25 February 2020
Temperature: missing
Dewpoint: missing
Pressure (altimeter): missing
Winds: missing
Visibility: missing
Ceiling: unknown
Clouds: missing
Weather: PE  (moderate ice pellets)

METAR text: RKTN 252220Z 33002KT 4800 BR FEW005 BKN015 OVC025 07/06 A3018 RMK CIG015
Conditions at: RKTN (TAEGU (US/KOR-AF, KR) observed 2220 UTC 25 February 2020
Temperature: 7.0°C (45°F)
Dewpoint: 6.0°C (43°F) [RH = 93%]
Pressure (altimeter): 30.18 inches Hg (1022.1 mb)
Winds: from the NNW (330 degrees) at 2 MPH (2 knots; 1.0 m/s)
Visibility: 2.98 miles (4.80 km)
Ceiling: 1500 feet AGL
Clouds: few clouds at 500 feet AGL
broken clouds at 1500 feet AGL
overcast cloud deck at 2500 feet AGL
Weather: BR  (mist)

METAR text: RKTN 252214Z 33002KT 4800 BR FEW005 BKN015 OVC025 07/06 Q1022 RMK CIG015
Conditions at: RKTN (TAEGU (US/KOR-AF, KR) observed 2214 UTC 25 February 2020
Temperature: 7.0°C (45°F)
Dewpoint: 6.0°C (43°F) [RH = 93%]
Pressure (altimeter): 30.18 inches Hg (1022.0 mb)
Winds: from the NNW (330 degrees) at 2 MPH (2 knots; 1.0 m/s)
Visibility: 2.98 miles (4.80 km)
Ceiling: 1500 feet AGL
Clouds: few clouds at 500 feet AGL
broken clouds at 1500 feet AGL
overcast cloud deck at 2500 feet AGL
Weather: BR  (mist)

METAR text: RKTN 252200Z 32002KT 4800 BR FEW005 BKN015 OVC025 07/06 Q1021
Conditions at: RKTN (TAEGU (US/KOR-AF, KR) observed 2200 UTC 25 February 2020
Temperature: 7.0°C (45°F)
Dewpoint: 6.0°C (43°F) [RH = 93%]
Pressure (altimeter): 30.15 inches Hg (1021.0 mb)
Winds: from the NW (320 degrees) at 2 MPH (2 knots; 1.0 m/s)
Visibility: 2.98 miles (4.80 km)
Ceiling: 1500 feet AGL
Clouds: few clouds at 500 feet AGL
broken clouds at 1500 feet AGL
overcast cloud deck at 2500 feet AGL
Weather: BR  (mist)

METAR text: RKTN 252100Z 07001KT 6000 FEW005 BKN013 BKN030 07/06 Q1020
Conditions at: RKTN (TAEGU (US/KOR-AF, KR) observed 2100 UTC 25 February 2020
Temperature: 7.0°C (45°F)
Dewpoint: 6.0°C (43°F) [RH = 93%]
Pressure (altimeter): 30.12 inches Hg (1020.0 mb)
Winds: from the ENE (70 degrees) at 1 MPH (1 knots; 0.5 m/s)
Visibility: 4 miles ( 6 km)
Ceiling: 1300 feet AGL
Clouds: few clouds at 500 feet AGL
broken clouds at 1300 feet AGL
broken clouds at 3000 feet AGL
Weather: no significant weather observed at this time

METAR text: RKTN 252044Z 25SPECI
Conditions at: RKTN (TAEGU (US/KOR-AF, KR) observed 2044 UTC 25 February 2020
Temperature: missing
Dewpoint: missing
Pressure (altimeter): missing
Winds: missing
Visibility: missing
Ceiling: unknown
Clouds: missing
Weather: PE  (moderate ice pellets)

METAR text: RKTN 252040Z 03001KT 6000 BR SCT005 BKN013 BKN025 07/06 A3015 RMK CIG013
Conditions at: RKTN (TAEGU (US/KOR-AF, KR) observed 2040 UTC 25 February 2020
Temperature: 7.0°C (45°F)
Dewpoint: 6.0°C (43°F) [RH = 93%]
Pressure (altimeter): 30.15 inches Hg (1021.1 mb)
Winds: from the NNE (30 degrees) at 1 MPH (1 knots; 0.5 m/s)
Visibility: 4 miles ( 6 km)
Ceiling: 1300 feet AGL
Clouds: scattered clouds at 500 feet AGL
broken clouds at 1300 feet AGL
broken clouds at 2500 feet AGL
Weather: BR  (mist)

METAR text: RKTN 252035Z 03001KT 6000 SCT005 BKN013 BKN025 07/06 Q1020 RMK CIG013
Conditions at: RKTN (TAEGU (US/KOR-AF, KR) observed 2035 UTC 25 February 2020
Temperature: 7.0°C (45°F)
Dewpoint: 6.0°C (43°F) [RH = 93%]
Pressure (altimeter): 30.12 inches Hg (1020.0 mb)
Winds: from the NNE (30 degrees) at 1 MPH (1 knots; 0.5 m/s)
Visibility: 4 miles ( 6 km)
Ceiling: 1300 feet AGL
Clouds: scattered clouds at 500 feet AGL
broken clouds at 1300 feet AGL
broken clouds at 2500 feet AGL
Weather: no significant weather observed at this time

METAR text: RKTN 252000Z 29001KT 6000 SCT005 BKN020 07/06 Q1020
Conditions at: RKTN (TAEGU (US/KOR-AF, KR) observed 2000 UTC 25 February 2020
Temperature: 7.0°C (45°F)
Dewpoint: 6.0°C (43°F) [RH = 93%]
Pressure (altimeter): 30.12 inches Hg (1020.0 mb)
Winds: from the WNW (290 degrees) at 1 MPH (1 knots; 0.5 m/s)
Visibility: 4 miles ( 6 km)
Ceiling: 2000 feet AGL
Clouds: scattered clouds at 500 feet AGL
broken clouds at 2000 feet AGL
Weather: no significant weather observed at this time

Forecast for: RKTN (TAEGU (US/KOR-AF, KR)
Text: TAF RKTN 270500Z 2706/2812 13006KT 9999 BKN040 TN01/2721Z TX08/2806Z
Forecast period: 0600 to 1100 UTC 27 February 2020
Forecast type: FROM: standard forecast or significant change
Winds: from the SE (130 degrees) at 7 MPH (6 knots; 3.1 m/s)
Visibility: 6 or more miles 10+ km)
Ceiling: 4000 feet AGL
Clouds: broken clouds at 4000 feet AGL
Weather: no significant weather forecast for this period
Text: BECMG 2711/2712 SCT040 SCT180
Forecast period: 1100 UTC 27 February 2020 to 0400 UTC 28 February 2020
Forecast type: BECOMING: Conditions expected to become as follows by 1200 UTC 27 February 2020
Winds: from the SE (130 degrees) at 7 MPH (6 knots; 3.1 m/s)
Visibility: 6 or more miles 10+ km)
Ceiling: at least 12,000 feet AGL
Clouds: scattered clouds at 4000 feet AGL
scattered clouds at 18000 feet AGL
Weather: no significant weather forecast for this period
Text: BECMG 2804/2805 27006KT 8000 -RA SCT015 BKN025 OVC030
Forecast period: 0400 to 1200 UTC 28 February 2020
Forecast type: BECOMING: Conditions expected to become as follows by 0500 UTC 28 February 2020
Winds: from the W (270 degrees) at 7 MPH (6 knots; 3.1 m/s)
Visibility: 5 miles (8 km)
Ceiling: 2500 feet AGL
Clouds: scattered clouds at 1500 feet AGL
broken clouds at 2500 feet AGL
overcast cloud deck at 3000 feet AGL
Weather: -RA  (light rain)